Time;durP1;ratioP1;P1;durP2;ratioP2;P2;SDS_P1;SDS_P2;PMS_P1;PMS_P2;Temp;Humidity;BMP_temperature;BMP_pressure;BME280_temperature;BME280_humidity;BME280_pressure;Samples;Min_cycle;Max_cycle;Signal;HPM_P1;HPM_P2
2021/05/20 00:02:23;;;;;;;18.20;12.85;;;5.80;99.90;;;;;;4831955;29;20069;-92
2021/05/20 00:04:49;;;;;;;22.15;15.27;;;5.80;99.90;;;;;;4844132;29;20041;-92
2021/05/20 00:07:15;;;;;;;33.63;19.90;;;5.80;99.90;;;;;;4828652;29;20046;-91
2021/05/20 00:09:41;;;;;;;31.98;19.45;;;5.80;99.90;;;;;;4820101;29;20045;-91
2021/05/20 00:12:08;;;;;;;39.05;20.67;;;5.80;99.90;;;;;;4844355;29;20078;-91
2021/05/20 00:14:34;;;;;;;33.53;19.45;;;5.70;99.90;;;;;;4845581;29;20110;-90
2021/05/20 00:16:59;;;;;;;41.80;21.02;;;5.80;99.90;;;;;;4869957;29;20053;-91
2021/05/20 00:19:25;;;;;;;43.75;20.27;;;5.70;99.90;;;;;;4843101;29;20045;-90
2021/05/20 00:21:51;;;;;;;41.50;21.17;;;5.70;99.90;;;;;;4828927;29;20610;-91
2021/05/20 00:24:17;;;;;;;30.42;17.45;;;5.80;99.90;;;;;;4843405;29;20077;-90
2021/05/20 00:26:43;;;;;;;45.63;22.17;;;5.70;99.90;;;;;;4843667;29;20482;-90
2021/05/20 00:29:09;;;;;;;42.50;21.05;;;5.70;99.90;;;;;;4849251;29;20046;-90
2021/05/20 00:31:35;;;;;;;57.90;25.30;;;5.70;99.90;;;;;;4828117;29;20612;-90
2021/05/20 00:34:01;;;;;;;38.10;20.60;;;5.80;99.90;;;;;;4828998;29;20551;-90
2021/05/20 00:36:27;;;;;;;49.78;23.00;;;5.80;99.90;;;;;;4841994;29;20049;-91
2021/05/20 00:38:53;;;;;;;45.08;22.55;;;5.70;99.90;;;;;;4822725;29;20098;-91
2021/05/20 00:41:21;;;;;;;55.47;25.27;;;5.70;99.90;;;;;;4827002;29;20081;-92
2021/05/20 00:43:48;;;;;;;51.13;24.95;;;5.70;99.90;;;;;;4859562;29;20049;-91
2021/05/20 00:46:14;;;;;;;55.13;26.13;;;5.80;99.90;;;;;;4843325;29;20487;-91
2021/05/20 00:48:40;;;;;;;50.00;26.67;;;5.80;99.90;;;;;;4822726;29;20110;-92
2021/05/20 00:51:06;;;;;;;48.53;23.92;;;5.80;99.90;;;;;;4837920;29;20053;-91
2021/05/20 00:53:32;;;;;;;45.60;23.30;;;5.80;99.90;;;;;;4843000;29;20571;-90
2021/05/20 00:55:58;;;;;;;37.17;20.13;;;5.70;99.90;;;;;;4860084;29;20052;-91
2021/05/20 00:58:25;;;;;;;51.22;24.25;;;5.70;99.90;;;;;;4842971;29;20061;-91
2021/05/20 01:00:55;;;;;;;59.45;30.15;;;5.70;99.90;;;;;;4856305;29;20494;-91
2021/05/20 01:03:22;;;;;;;32.38;20.38;;;5.80;99.90;;;;;;4850537;29;20053;-89
2021/05/20 01:05:52;;;;;;;46.85;22.77;;;5.70;99.90;;;;;;4824405;29;20045;-91
2021/05/20 01:08:18;;;;;;;34.40;19.13;;;5.70;99.90;;;;;;4843889;29;20049;-91
2021/05/20 01:10:44;;;;;;;41.65;21.30;;;5.70;99.90;;;;;;4827756;29;20048;-91
2021/05/20 01:13:10;;;;;;;36.40;20.75;;;5.70;99.90;;;;;;4866806;29;20049;-90
2021/05/20 01:15:35;;;;;;;47.63;21.73;;;5.60;99.90;;;;;;4843060;29;20053;-91
2021/05/20 01:18:04;;;;;;;56.72;26.02;;;5.60;99.90;;;;;;4843046;29;20053;-92
2021/05/20 01:20:36;;;;;;;27.20;17.35;;;5.60;99.90;;;;;;4842647;29;20470;-91
2021/05/20 01:23:11;;;;;;;45.47;22.17;;;5.60;99.90;;;;;;4843079;29;20049;-91
2021/05/20 01:25:38;;;;;;;46.17;22.42;;;5.50;99.90;;;;;;4847904;29;20046;-92
2021/05/20 01:28:22;;;;;;;59.00;26.65;;;5.50;99.90;;;;;;4854713;29;20037;-91
2021/05/20 01:30:50;;;;;;;49.17;25.55;;;5.50;99.90;;;;;;4850654;29;20165;-91
2021/05/20 01:33:16;;;;;;;52.47;25.55;;;5.50;99.90;;;;;;4858000;29;20455;-91
2021/05/20 01:35:44;;;;;;;60.20;27.63;;;5.50;99.90;;;;;;4842562;29;20097;-91
2021/05/20 01:38:53;;;;;;;149.57;26.80;;;5.50;99.90;;;;;;4858975;29;20052;-91
2021/05/20 01:41:02;;;;;;;25.70;17.48;;;5.50;99.90;;;;;;4851729;29;20113;-92
2021/05/20 01:43:30;;;;;;;20.45;15.80;;;5.50;99.90;;;;;;4826601;29;20056;-92
2021/05/20 01:46:02;;;;;;;28.77;16.55;;;5.40;99.90;;;;;;4842686;29;20102;-92
2021/05/20 01:48:36;;;;;;;25.92;18.13;;;5.40;99.90;;;;;;4828361;29;20132;-90
2021/05/20 01:51:07;;;;;;;40.20;16.88;;;5.40;99.90;;;;;;4842027;29;20085;-90
2021/05/20 01:53:35;;;;;;;100.53;16.05;;;5.40;99.90;;;;;;4858021;29;20437;-91
2021/05/20 01:56:02;;;;;;;59.47;17.02;;;5.40;99.90;;;;;;4842297;29;20042;-92
2021/05/20 01:58:28;;;;;;;33.30;16.73;;;5.50;99.90;;;;;;4841723;29;20045;-91
2021/05/20 02:00:54;;;;;;;45.63;16.65;;;5.50;99.90;;;;;;4842279;29;20516;-90
2021/05/20 02:03:21;;;;;;;118.88;16.95;;;5.50;99.90;;;;;;4858363;29;20045;-90
2021/05/20 02:05:47;;;;;;;144.00;14.52;;;5.50;99.90;;;;;;4840553;29;20041;-90
2021/05/20 02:08:13;;;;;;;173.90;17.58;;;5.50;99.90;;;;;;4826322;29;20061;-90
2021/05/20 02:10:40;;;;;;;241.82;17.73;;;5.50;99.90;;;;;;4840816;29;20079;-90
2021/05/20 02:13:06;;;;;;;72.38;12.95;;;5.50;99.90;;;;;;4840894;29;20045;-90
2021/05/20 02:15:33;;;;;;;62.38;14.55;;;5.60;99.90;;;;;;4826040;29;20406;-89
2021/05/20 02:17:59;;;;;;;154.15;16.33;;;5.50;99.90;;;;;;4841086;29;20057;-89
2021/05/20 02:20:26;;;;;;;145.55;18.23;;;5.50;99.90;;;;;;4857326;29;20303;-89
2021/05/20 02:22:52;;;;;;;72.82;16.63;;;5.50;99.90;;;;;;4856449;29;20060;-90
2021/05/20 02:25:18;;;;;;;97.85;17.33;;;5.40;99.90;;;;;;4826883;29;20042;-91
2021/05/20 02:27:44;;;;;;;105.80;17.65;;;5.30;99.90;;;;;;4857147;29;20093;-90
2021/05/20 02:30:12;;;;;;;87.10;19.52;;;5.40;99.90;;;;;;4825659;29;20053;-89
2021/05/20 02:32:38;;;;;;;135.65;22.10;;;5.40;99.90;;;;;;4856045;29;20136;-89
2021/05/20 02:35:05;;;;;;;95.80;16.98;;;5.40;99.90;;;;;;4826185;29;20379;-90
2021/05/20 02:37:31;;;;;;;161.90;18.23;;;5.30;99.90;;;;;;4857582;29;20105;-88
2021/05/20 02:39:57;;;;;;;135.25;17.45;;;5.30;99.90;;;;;;4841183;29;20042;-91
2021/05/20 02:42:23;;;;;;;100.63;18.23;;;5.30;99.90;;;;;;4836943;29;20050;-90
2021/05/20 02:44:49;;;;;;;89.63;22.00;;;5.40;99.90;;;;;;4852875;29;20045;-90
2021/05/20 02:47:15;;;;;;;349.83;26.30;;;5.30;99.90;;;;;;4846343;29;20045;-90
2021/05/20 02:49:43;;;;;;;158.27;20.83;;;5.20;99.90;;;;;;4854417;29;20037;-91
2021/05/20 02:52:09;;;;;;;90.05;16.33;;;5.30;99.90;;;;;;4836370;29;20066;-89
2021/05/20 02:54:36;;;;;;;153.50;17.70;;;5.20;99.90;;;;;;4833604;29;20103;-91
2021/05/20 02:57:03;;;;;;;130.10;17.05;;;5.20;99.90;;;;;;4841694;29;20042;-90
2021/05/20 02:59:29;;;;;;;162.20;19.98;;;5.20;99.90;;;;;;4823376;29;20056;-91
2021/05/20 03:02:02;;;;;;;138.95;26.27;;;5.20;99.90;;;;;;4838823;29;20038;-91
2021/05/20 03:04:29;;;;;;;26.58;19.23;;;5.20;99.90;;;;;;4827560;29;20427;-90
2021/05/20 03:06:54;;;;;;;30.23;20.90;;;5.20;99.90;;;;;;4840863;29;20661;-92
2021/05/20 03:09:20;;;;;;;25.33;19.20;;;5.20;99.90;;;;;;4841736;29;20065;-92
2021/05/20 03:11:46;;;;;;;29.02;19.42;;;5.30;99.90;;;;;;4841799;29;20072;-92
2021/05/20 03:14:12;;;;;;;31.67;21.10;;;5.30;99.90;;;;;;4827129;29;20049;-93
2021/05/20 03:16:38;;;;;;;29.55;22.00;;;5.30;99.90;;;;;;4827345;29;20054;-92
2021/05/20 03:19:04;;;;;;;31.05;20.50;;;5.30;99.90;;;;;;4827048;29;20060;-92
2021/05/20 03:21:30;;;;;;;37.38;20.80;;;5.30;99.90;;;;;;4827190;29;20045;-92
2021/05/20 03:23:56;;;;;;;39.35;22.20;;;5.40;99.90;;;;;;4826609;29;20124;-93
2021/05/20 03:26:21;;;;;;;46.30;16.63;;;5.40;99.90;;;;;;4829968;29;20509;-92
2021/05/20 03:28:47;;;;;;;45.65;24.63;;;5.30;99.90;;;;;;4830083;29;20046;-92
2021/05/20 03:31:13;;;;;;;43.00;23.77;;;5.40;99.90;;;;;;4836134;29;20056;-93
2021/05/20 03:33:41;;;;;;;32.00;22.33;;;5.30;99.90;;;;;;4845664;29;20490;-93
2021/05/20 03:36:07;;;;;;;35.08;20.98;;;5.30;99.90;;;;;;4845966;29;20132;-93
2021/05/20 03:38:33;;;;;;;35.92;21.35;;;5.30;99.90;;;;;;4862298;29;20048;-93
2021/05/20 03:41:01;;;;;;;35.92;22.48;;;5.30;99.90;;;;;;4861370;29;20029;-93
2021/05/20 03:43:31;;;;;;;60.63;28.83;;;5.40;99.90;;;;;;4815098;29;20064;-92
2021/05/20 03:45:57;;;;;;;40.33;23.23;;;5.30;99.90;;;;;;4861219;29;20045;-90
2021/05/20 03:48:23;;;;;;;51.85;28.60;;;5.30;99.90;;;;;;4860642;29;20100;-89
2021/05/20 03:50:48;;;;;;;52.65;25.75;;;5.30;99.90;;;;;;4860062;29;20054;-91
2021/05/20 03:53:14;;;;;;;51.65;27.73;;;5.30;99.90;;;;;;4830098;29;20073;-91
2021/05/20 03:55:40;;;;;;;43.58;23.13;;;5.40;99.90;;;;;;4844953;29;20088;-92
2021/05/20 03:58:06;;;;;;;62.25;28.90;;;5.30;99.90;;;;;;4829864;29;20057;-91
2021/05/20 04:00:32;;;;;;;72.07;30.00;;;5.30;99.90;;;;;;4860720;29;20075;-90
2021/05/20 04:02:58;;;;;;;48.38;25.95;;;5.30;99.90;;;;;;4828618;29;20057;-91
2021/05/20 04:05:24;;;;;;;41.72;22.35;;;5.40;99.90;;;;;;4862115;29;20045;-91
2021/05/20 04:07:49;;;;;;;60.47;28.48;;;5.30;99.90;;;;;;4843401;29;20053;-91
2021/05/20 04:10:15;;;;;;;42.72;23.45;;;5.40;99.90;;;;;;4828450;29;20072;-92
2021/05/20 04:12:41;;;;;;;59.53;31.17;;;5.40;99.90;;;;;;4828796;29;20037;-92
2021/05/20 04:15:08;;;;;;;44.33;25.52;;;5.50;99.90;;;;;;4848851;29;20045;-91
2021/05/20 04:17:34;;;;;;;85.88;36.55;;;5.60;99.90;;;;;;4853025;29;20147;-90
2021/05/20 04:19:59;;;;;;;71.28;34.78;;;5.60;99.90;;;;;;4842945;29;20165;-90
2021/05/20 04:22:25;;;;;;;92.78;37.00;;;5.50;99.90;;;;;;4824951;29;20054;-90
2021/05/20 04:24:51;;;;;;;61.83;31.48;;;5.60;99.90;;;;;;4842311;29;20491;-90
2021/05/20 04:27:17;;;;;;;78.50;32.75;;;5.60;99.90;;;;;;4828286;29;20088;-92
2021/05/20 04:29:43;;;;;;;84.82;37.25;;;5.70;99.90;;;;;;4828049;29;20050;-90
2021/05/20 04:32:09;;;;;;;50.75;26.50;;;5.70;99.90;;;;;;4857587;29;20105;-91
2021/05/20 04:34:35;;;;;;;53.03;27.85;;;5.80;99.90;;;;;;4828326;29;20106;-91
2021/05/20 04:37:06;;;;;;;52.30;28.48;;;5.80;99.90;;;;;;4826702;29;20142;-92
2021/05/20 04:39:32;;;;;;;45.10;26.45;;;5.90;99.90;;;;;;4844411;29;20056;-93
2021/05/20 04:41:58;;;;;;;46.58;25.55;;;5.90;99.90;;;;;;4842661;29;20498;-91
2021/05/20 04:44:24;;;;;;;45.80;26.67;;;6.00;99.90;;;;;;4860234;29;20124;-91
2021/05/20 04:46:50;;;;;;;49.13;28.88;;;6.10;99.90;;;;;;4843912;29;20547;-92
2021/05/20 04:49:16;;;;;;;48.80;28.13;;;6.20;99.90;;;;;;4844589;29;20049;-92
2021/05/20 04:51:44;;;;;;;38.83;25.13;;;6.20;99.90;;;;;;4857931;29;20093;-93
2021/05/20 04:54:10;;;;;;;44.97;28.20;;;6.40;99.90;;;;;;4839540;29;20049;-91
2021/05/20 04:56:37;;;;;;;44.42;27.30;;;6.40;99.90;;;;;;4844056;29;20124;-91
2021/05/20 04:59:03;;;;;;;40.70;26.10;;;6.50;99.90;;;;;;4828248;29;20183;-91
2021/05/20 05:01:29;;;;;;;38.38;23.90;;;6.60;99.90;;;;;;4868079;29;20049;-93
2021/05/20 05:03:57;;;;;;;38.17;25.40;;;6.70;99.90;;;;;;4860044;29;20101;-93
2021/05/20 05:06:23;;;;;;;44.25;26.17;;;6.70;99.90;;;;;;4844800;29;20068;-92
2021/05/20 05:08:48;;;;;;;41.08;25.67;;;6.80;99.90;;;;;;4822361;29;20413;-92
2021/05/20 05:11:15;;;;;;;49.75;29.10;;;6.90;99.90;;;;;;4828247;29;20486;-93
2021/05/20 05:13:40;;;;;;;49.42;29.50;;;7.00;99.90;;;;;;4860656;29;20069;-93
2021/05/20 05:16:06;;;;;;;44.90;28.80;;;7.00;99.90;;;;;;4827739;29;20084;-92
2021/05/20 05:18:32;;;;;;;44.70;27.58;;;7.10;99.90;;;;;;4843676;29;20402;-93
2021/05/20 05:20:58;;;;;;;44.13;27.90;;;7.10;99.90;;;;;;4822223;29;20052;-91
2021/05/20 05:23:24;;;;;;;47.25;28.35;;;7.20;99.90;;;;;;4843217;29;20110;-92
2021/05/20 05:25:54;;;;;;;43.47;27.10;;;7.20;99.90;;;;;;4843869;29;20091;-90
2021/05/20 05:28:20;;;;;;;52.08;30.83;;;7.30;99.90;;;;;;4841163;29;20065;-91
2021/05/20 05:30:46;;;;;;;49.05;32.35;;;7.40;99.90;;;;;;4854408;29;20049;-92
2021/05/20 05:33:12;;;;;;;45.53;28.30;;;7.50;99.90;;;;;;4846677;29;20063;-92
2021/05/20 05:35:38;;;;;;;45.67;28.75;;;7.60;99.90;;;;;;4873006;29;20076;-92
2021/05/20 05:38:04;;;;;;;51.78;32.72;;;7.70;99.90;;;;;;4856904;29;20490;-91
2021/05/20 05:40:30;;;;;;;49.60;30.92;;;7.60;99.90;;;;;;4849064;29;20053;-92
2021/05/20 05:42:56;;;;;;;48.60;30.77;;;7.70;99.90;;;;;;4858072;29;20057;-91
2021/05/20 05:45:22;;;;;;;48.08;30.98;;;7.80;99.90;;;;;;4839433;29;20506;-90
2021/05/20 05:47:48;;;;;;;52.05;32.92;;;7.90;99.90;;;;;;4842745;29;20049;-91
2021/05/20 05:50:15;;;;;;;57.83;37.75;;;8.10;99.90;;;;;;4851658;29;20049;-92
2021/05/20 05:52:42;;;;;;;69.82;39.85;;;8.20;99.90;;;;;;4850965;29;20057;-90
2021/05/20 05:55:08;;;;;;;63.70;37.65;;;8.40;99.90;;;;;;4817740;29;20045;-91
2021/05/20 05:57:35;;;;;;;59.97;35.35;;;8.50;99.90;;;;;;4842697;29;20060;-92
2021/05/20 06:00:01;;;;;;;62.10;36.63;;;8.50;99.90;;;;;;4831915;29;20049;-92
2021/05/20 06:02:27;;;;;;;58.13;36.38;;;8.70;99.90;;;;;;4836319;29;20049;-91
2021/05/20 06:04:53;;;;;;;43.35;30.85;;;8.80;99.90;;;;;;4836776;29;20124;-92
2021/05/20 06:07:19;;;;;;;53.22;30.55;;;8.80;99.90;;;;;;4841846;29;20045;-91
2021/05/20 06:09:45;;;;;;;46.85;30.58;;;8.90;99.90;;;;;;4842988;29;20037;-92
2021/05/20 06:12:11;;;;;;;45.25;31.08;;;8.90;99.90;;;;;;4846619;29;20122;-92
2021/05/20 06:14:40;;;;;;;44.50;29.55;;;9.00;99.90;;;;;;4842885;29;20399;-91
2021/05/20 06:17:07;;;;;;;62.03;35.80;;;9.10;99.90;;;;;;4824012;29;20586;-94
2021/05/20 06:19:33;;;;;;;50.80;33.00;;;9.30;99.90;;;;;;4842971;29;20447;-92
2021/05/20 06:21:58;;;;;;;40.45;29.30;;;9.40;99.90;;;;;;4827605;29;20136;-90
2021/05/20 06:24:25;;;;;;;58.85;33.58;;;9.50;99.90;;;;;;4844022;29;20102;-91
2021/05/20 06:26:51;;;;;;;40.47;27.38;;;9.60;99.90;;;;;;4843197;29;20053;-93
2021/05/20 06:29:16;;;;;;;41.13;28.73;;;9.60;99.90;;;;;;4826432;29;20482;-92
2021/05/20 06:31:42;;;;;;;49.13;32.33;;;9.70;99.90;;;;;;4826933;29;20132;-91
2021/05/20 06:34:08;;;;;;;45.75;29.25;;;9.90;99.90;;;;;;4826741;29;20422;-92
2021/05/20 06:36:36;;;;;;;32.13;23.58;;;10.00;99.90;;;;;;4841964;29;20053;-91
2021/05/20 06:39:04;;;;;;;25.60;19.63;;;10.10;99.90;;;;;;4841925;29;20126;-91
2021/05/20 06:41:30;;;;;;;35.45;23.38;;;10.30;99.90;;;;;;4826394;29;20053;-92
2021/05/20 06:43:56;;;;;;;32.17;22.35;;;10.40;99.90;;;;;;4827075;29;20510;-93
2021/05/20 06:46:21;;;;;;;24.88;19.45;;;10.60;99.90;;;;;;4841189;29;20045;-92
2021/05/20 06:48:47;;;;;;;28.13;20.00;;;10.60;99.90;;;;;;4827768;29;20435;-93
2021/05/20 06:51:13;;;;;;;20.05;16.38;;;10.70;99.90;;;;;;4841747;29;20045;-94
2021/05/20 06:53:39;;;;;;;22.83;18.63;;;10.80;99.90;;;;;;4846100;29;20049;-90
2021/05/20 06:56:08;;;;;;;23.20;18.92;;;10.90;99.90;;;;;;4820735;29;20037;-93
2021/05/20 07:01:19;;;;;;;24.27;15.73;;;11.00;99.90;;;;;;4847110;29;20046;-92
2021/05/20 07:03:45;;;;;;;20.15;14.77;;;11.00;99.90;;;;;;4817670;29;20106;-91
2021/05/20 07:06:12;;;;;;;18.48;14.90;;;11.10;99.90;;;;;;4844429;29;20053;-90
2021/05/20 07:08:39;;;;;;;16.15;12.70;;;11.20;99.90;;;;;;4860893;29;20252;-91
2021/05/20 07:11:05;;;;;;;12.88;11.57;;;11.30;99.90;;;;;;4860888;29;20117;-90
2021/05/20 07:13:32;;;;;;;14.55;10.98;;;11.50;99.90;;;;;;4828999;29;20049;-91
2021/05/20 07:15:58;;;;;;;18.38;10.93;;;11.50;99.90;;;;;;4831460;29;20049;-92
2021/05/20 07:18:23;;;;;;;14.43;10.32;;;11.50;99.90;;;;;;4816245;29;20048;-92
2021/05/20 07:20:49;;;;;;;13.95;11.07;;;11.60;99.90;;;;;;4829190;29;20128;-89
2021/05/20 07:23:17;;;;;;;11.40;10.20;;;11.70;99.90;;;;;;4842983;29;20045;-90
2021/05/20 07:25:43;;;;;;;12.25;9.90;;;11.80;99.90;;;;;;4849843;29;20117;-90
2021/05/20 07:28:09;;;;;;;13.98;8.50;;;12.00;99.90;;;;;;4856816;29;20045;-90
2021/05/20 07:30:36;;;;;;;11.45;7.47;;;12.10;99.90;;;;;;4859730;29;20521;-90
2021/05/20 07:33:02;;;;;;;10.35;7.20;;;12.20;99.90;;;;;;4848870;29;20394;-91
2021/05/20 07:35:28;;;;;;;6.45;5.63;;;12.30;99.90;;;;;;4859603;29;20121;-91
2021/05/20 07:37:54;;;;;;;7.50;5.55;;;12.30;99.90;;;;;;4826470;29;20056;-91
2021/05/20 07:40:21;;;;;;;11.80;5.68;;;12.40;99.90;;;;;;4835417;29;20037;-91
2021/05/20 07:42:47;;;;;;;11.77;6.55;;;12.60;99.90;;;;;;4843752;29;20084;-91
2021/05/20 07:45:15;;;;;;;8.68;5.30;;;12.70;99.90;;;;;;4824687;29;20049;-92
2021/05/20 07:47:44;;;;;;;8.48;6.18;;;12.70;99.90;;;;;;4853751;29;20448;-91
2021/05/20 07:50:11;;;;;;;6.93;5.72;;;12.70;99.90;;;;;;4859902;29;20057;-89
2021/05/20 07:52:38;;;;;;;6.85;4.00;;;12.60;99.90;;;;;;4843516;29;20053;-93
2021/05/20 07:55:04;;;;;;;3.97;3.60;;;12.70;99.90;;;;;;4843897;29;20113;-93
2021/05/20 07:57:30;;;;;;;4.38;3.97;;;12.90;99.90;;;;;;4858796;29;20691;-91
2021/05/20 07:59:56;;;;;;;6.32;4.13;;;13.00;99.90;;;;;;4842813;29;20418;-92
2021/05/20 08:04:55;;;;;;;8.48;3.63;;;13.30;99.90;;;;;;4843666;29;20078;-93
2021/05/20 08:12:28;;;;;;;4.72;3.88;;;13.10;99.90;;;;;;4857290;29;20038;-91
2021/05/20 08:14:54;;;;;;;3.75;3.33;;;13.10;99.90;;;;;;4843295;29;20053;-91
2021/05/20 08:17:20;;;;;;;5.63;4.00;;;13.20;99.90;;;;;;4842657;29;20052;-91
2021/05/20 08:19:45;;;;;;;7.75;3.35;;;13.30;99.90;;;;;;4812239;29;20454;-91
2021/05/20 08:22:11;;;;;;;6.68;3.58;;;13.40;99.90;;;;;;4842993;29;20057;-90
2021/05/20 08:24:37;;;;;;;3.70;3.40;;;13.60;99.90;;;;;;4842108;29;20038;-92
2021/05/20 08:27:03;;;;;;;4.82;3.67;;;13.80;99.90;;;;;;4827938;29;20057;-91
2021/05/20 08:29:30;;;;;;;9.40;4.75;;;13.70;99.90;;;;;;4826464;29;20168;-92
2021/05/20 08:31:56;;;;;;;5.03;3.50;;;13.60;99.90;;;;;;4835451;29;20049;-92
2021/05/20 08:34:22;;;;;;;3.83;3.53;;;13.50;99.90;;;;;;4856340;29;20133;-90
2021/05/20 08:36:48;;;;;;;8.05;4.30;;;13.30;99.90;;;;;;4842461;29;20068;-90
2021/05/20 08:39:13;;;;;;;5.53;3.58;;;13.20;99.90;;;;;;4827196;29;20179;-89
2021/05/20 08:41:39;;;;;;;4.97;3.83;;;13.20;99.90;;;;;;4838846;29;20041;-90
2021/05/20 08:44:13;;;;;;;5.72;3.63;;;13.30;99.90;;;;;;4847858;29;20042;-90
2021/05/20 08:46:39;;;;;;;8.40;4.20;;;13.20;99.90;;;;;;4852346;29;20057;-90
2021/05/20 08:49:14;;;;;;;5.20;4.00;;;13.10;99.90;;;;;;4857251;29;20108;-91
2021/05/20 08:51:47;;;;;;;8.95;4.25;;;13.20;99.90;;;;;;4831206;29;20046;-91
2021/05/20 08:54:14;;;;;;;6.47;4.07;;;13.30;99.90;;;;;;4829758;29;20383;-90
2021/05/20 08:56:48;;;;;;;8.68;5.10;;;13.40;99.90;;;;;;4847179;29;20049;-91
2021/05/20 08:59:14;;;;;;;5.78;4.05;;;13.50;99.90;;;;;;4854241;29;20041;-92
2021/05/20 09:01:43;;;;;;;10.02;3.90;;;13.70;99.90;;;;;;4840732;29;20061;-93
2021/05/20 09:04:10;;;;;;;6.07;3.47;;;14.00;99.90;;;;;;4828308;29;20121;-91
2021/05/20 09:06:42;;;;;;;9.27;3.25;;;14.20;99.90;;;;;;4838714;29;20055;-92
2021/05/20 09:09:14;;;;;;;3.65;3.30;;;14.30;99.90;;;;;;4836642;29;20042;-91
2021/05/20 09:11:58;;;;;;;3.13;2.63;;;14.40;99.90;;;;;;4831745;29;20483;-91
2021/05/20 09:14:35;;;;;;;5.15;2.95;;;14.50;99.90;;;;;;4840446;29;20048;-94
2021/05/20 09:17:16;;;;;;;7.13;3.20;;;14.60;99.90;;;;;;4839763;29;20148;-91
2021/05/20 09:19:45;;;;;;;7.43;3.45;;;14.80;99.90;;;;;;4856518;29;20053;-93
2021/05/20 09:22:13;;;;;;;10.43;3.15;;;15.00;99.90;;;;;;4858042;29;20045;-92
2021/05/20 09:24:49;;;;;;;6.63;3.08;;;15.10;99.90;;;;;;4857678;29;20053;-91
2021/05/20 09:27:36;;;;;;;3.20;2.90;;;15.00;99.90;;;;;;4842005;29;20081;-92
2021/05/20 09:30:16;;;;;;;9.38;3.35;;;14.90;99.90;;;;;;4841738;29;20117;-95
2021/05/20 09:32:44;;;;;;;9.15;3.63;;;14.70;99.90;;;;;;4857049;29;20121;-91
2021/05/20 09:35:10;;;;;;;5.20;3.25;;;14.50;99.90;;;;;;4841820;29;20038;-95
2021/05/20 09:37:49;;;;;;;5.43;3.47;;;14.50;99.90;;;;;;4826312;29;20084;-88
2021/05/20 09:40:18;;;;;;;5.45;3.22;;;14.30;99.90;;;;;;4857186;29;20045;-91
2021/05/20 09:42:46;;;;;;;4.35;3.45;;;14.40;99.90;;;;;;4851047;29;20617;-92
2021/05/20 09:45:14;;;;;;;4.75;2.53;;;14.50;99.90;;;;;;4843091;29;20037;-91
2021/05/20 09:47:40;;;;;;;3.72;2.50;;;14.40;99.90;;;;;;4825455;29;20041;-94
2021/05/20 09:50:22;;;;;;;3.35;2.60;;;14.60;99.90;;;;;;4830373;29;20511;-94
2021/05/20 09:52:49;;;;;;;2.92;2.72;;;14.80;99.90;;;;;;4853622;29;20042;-95
2021/05/20 09:55:24;;;;;;;6.43;2.75;;;14.90;99.90;;;;;;4849937;29;20041;-91
2021/05/20 09:57:51;;;;;;;3.45;2.80;;;15.10;99.90;;;;;;4856136;29;20037;-92
2021/05/20 10:00:22;;;;;;;3.38;2.55;;;15.20;99.90;;;;;;4840935;29;20471;-91
2021/05/20 10:03:01;;;;;;;2.78;2.40;;;15.30;99.90;;;;;;4825335;29;20045;-92
2021/05/20 10:05:37;;;;;;;5.70;2.50;;;15.30;99.90;;;;;;4846157;29;20060;-89
2021/05/20 10:08:08;;;;;;;5.65;2.67;;;15.40;99.90;;;;;;4857561;29;20498;-92
2021/05/20 10:10:37;;;;;;;4.05;2.53;;;15.40;99.90;;;;;;4849044;29;20050;-91
2021/05/20 10:13:09;;;;;;;2.97;2.60;;;15.70;99.90;;;;;;4840557;29;20132;-91
2021/05/20 10:15:37;;;;;;;6.95;2.50;;;15.90;99.90;;;;;;4832581;29;20049;-92
2021/05/20 10:18:08;;;;;;;3.80;2.08;;;16.20;99.90;;;;;;4841417;29;20049;-93
2021/05/20 10:20:36;;;;;;;3.75;2.20;;;16.60;99.90;;;;;;4856559;29;20051;-94
2021/05/20 10:23:06;;;;;;;4.38;2.00;;;16.70;99.90;;;;;;4849746;29;20089;-92
2021/05/20 10:25:31;;;;;;;;;;;16.90;99.90;;;;;;4842366;29;20077;-92
2021/05/20 10:27:59;;;;;;;6.43;2.70;;;17.00;99.90;;;;;;4839223;29;19925;-93
2021/05/20 10:30:25;;;;;;;2.10;2.00;;;17.10;99.90;;;;;;4856438;29;20042;-94
2021/05/20 10:32:58;;;;;;;6.18;2.17;;;17.20;99.90;;;;;;4838366;29;20121;-93
2021/05/20 10:35:39;;;;;;;5.57;2.03;;;17.30;99.90;;;;;;4840053;29;20033;-95
2021/05/20 10:38:05;;;;;;;7.15;2.13;;;17.30;99.90;;;;;;4841176;29;20053;-94
2021/05/20 10:40:35;;;;;;;3.28;1.70;;;17.20;99.90;;;;;;4856907;29;20124;-91
2021/05/20 10:43:03;;;;;;;3.90;1.90;;;17.20;99.90;;;;;;4841131;29;20056;-93
2021/05/20 10:45:29;;;;;;;2.78;2.28;;;17.20;99.90;;;;;;4856646;29;20045;-92
2021/05/20 10:48:04;;;;;;;1.60;1.50;;;17.10;99.90;;;;;;4840834;29;20128;-94
2021/05/20 10:50:51;;;;;;;3.28;2.03;;;17.20;99.90;;;;;;4850208;29;20188;-92
2021/05/20 10:53:52;;;;;;;7.13;2.03;;;17.30;99.90;;;;;;4839636;29;20509;-95
2021/05/20 10:56:18;;;;;;;3.55;1.60;;;17.30;99.90;;;;;;4839915;29;20050;-94
2021/05/20 10:58:46;;;;;;;5.20;1.40;;;17.40;99.90;;;;;;4845075;29;20133;-94
2021/05/20 11:01:20;;;;;;;1.33;1.20;;;17.50;99.90;;;;;;4857114;29;20136;-93
2021/05/20 11:03:50;;;;;;;2.38;1.30;;;17.20;99.90;;;;;;4856374;29;20055;-95
2021/05/20 11:06:17;;;;;;;4.05;1.02;;;17.30;99.90;;;;;;4857534;29;20049;-93
2021/05/20 11:08:46;;;;;;;4.32;1.13;;;17.40;99.90;;;;;;4840633;29;20398;-94
2021/05/20 11:11:30;;;;;;;4.22;1.50;;;17.30;99.90;;;;;;4841095;29;20073;-93
2021/05/20 11:14:01;;;;;;;4.63;1.00;;;17.30;99.90;;;;;;4855977;29;20545;-95
2021/05/20 11:16:37;;;;;;;3.13;1.30;;;17.60;99.90;;;;;;4856086;29;20056;-93
2021/05/20 11:19:22;;;;;;;3.83;1.23;;;17.80;99.90;;;;;;4847424;29;20049;-93
2021/05/20 11:22:08;;;;;;;2.95;1.17;;;17.90;99.90;;;;;;4852434;29;20069;-94
2021/05/20 11:24:39;;;;;;;1.77;1.20;;;17.90;99.90;;;;;;4845086;29;20068;-92
2021/05/20 11:27:17;;;;;;;1.67;1.02;;;17.70;99.90;;;;;;4857469;29;20097;-93
2021/05/20 11:29:47;;;;;;;2.05;1.50;;;17.90;99.90;;;;;;4825218;29;20046;-95
2021/05/20 11:32:31;;;;;;;1.07;1.00;;;17.90;99.90;;;;;;4829306;29;20046;-95
2021/05/20 11:35:33;;;;;;;4.90;1.27;;;18.00;99.90;;;;;;4854701;29;20366;-95
2021/05/20 11:37:59;;;;;;;2.70;0.90;;;18.30;99.90;;;;;;4825514;29;20128;-94
2021/05/20 11:40:29;;;;;;;0.50;0.50;;;18.10;99.90;;;;;;4839197;29;20128;-95
2021/05/20 11:42:55;;;;;;;1.95;0.57;;;17.90;98.40;;;;;;4856318;29;20236;-95
2021/05/20 11:45:26;;;;;;;4.13;0.70;;;18.20;95.30;;;;;;4841060;29;20045;-96
2021/05/20 11:47:56;;;;;;;1.05;0.65;;;18.40;97.20;;;;;;4859820;29;20072;-94
2021/05/20 11:50:25;;;;;;;;;;;18.40;96.60;;;;;;4860883;29;20049;-93
2021/05/20 11:52:52;;;;;;;9.70;1.02;;;18.50;96.90;;;;;;4859317;29;19924;-94
2021/05/20 11:55:20;;;;;;;1.33;1.23;;;18.60;99.10;;;;;;4855746;29;20056;-91
2021/05/20 11:57:46;;;;;;;1.52;0.93;;;18.50;96.70;;;;;;4854723;29;20061;-96
2021/05/20 12:00:14;;;;;;;4.78;1.10;;;18.40;97.30;;;;;;4842684;29;20125;-94
2021/05/20 12:02:41;;;;;;;4.53;1.00;;;18.70;98.70;;;;;;4854574;29;20057;-92
2021/05/20 12:05:12;;;;;;;1.85;0.90;;;19.00;97.40;;;;;;4851786;29;20046;-96
2021/05/20 12:07:40;;;;;;;3.45;1.05;;;19.30;97.30;;;;;;4836943;29;20052;-93
2021/05/20 12:10:12;;;;;;;0.70;0.70;;;19.50;97.90;;;;;;4830858;29;20045;-92
2021/05/20 12:12:54;;;;;;;6.35;1.15;;;19.70;97.30;;;;;;4829137;29;20053;-93
2021/05/20 12:15:21;;;;;;;0.70;0.70;;;19.80;95.60;;;;;;4842661;29;20063;-93
2021/05/20 12:17:48;;;;;;;3.42;0.90;;;20.10;98.20;;;;;;4855575;29;20053;-93
2021/05/20 12:20:16;;;;;;;2.03;1.27;;;20.10;93.80;;;;;;4840390;29;20495;-96
2021/05/20 12:22:43;;;;;;;1.13;0.60;;;20.20;94.80;;;;;;4844087;29;20045;-94
2021/05/20 12:25:15;;;;;;;1.50;0.93;;;20.50;95.00;;;;;;4827790;29;20041;-94
2021/05/20 12:27:51;;;;;;;1.70;0.70;;;20.70;92.10;;;;;;4859043;29;20456;-91
2021/05/20 12:30:24;;;;;;;2.40;0.90;;;21.00;93.20;;;;;;4843505;29;20045;-96
2021/05/20 12:32:52;;;;;;;0.80;0.60;;;21.30;96.30;;;;;;4859076;29;20072;-96
2021/05/20 12:35:19;;;;;;;4.20;0.70;;;21.40;92.50;;;;;;4859584;29;20052;-96
2021/05/20 12:37:45;;;;;;;59.05;5.97;;;21.60;94.30;;;;;;4859132;29;20113;-93
2021/05/20 12:40:17;;;;;;;0.60;0.60;;;21.70;93.20;;;;;;4842848;29;20137;-95
2021/05/20 12:42:43;;;;;;;3.05;0.60;;;21.90;86.50;;;;;;4859734;29;20060;-92
2021/05/20 12:45:10;;;;;;;1.25;0.45;;;22.00;91.60;;;;;;4859102;29;20076;-95
2021/05/20 12:47:49;;;;;;;2.80;0.60;;;22.00;90.20;;;;;;4843595;29;20474;-95
2021/05/20 12:50:28;;;;;;;2.55;0.73;;;22.30;87.90;;;;;;4843621;29;20064;-95
2021/05/20 12:52:59;;;;;;;4.80;0.57;;;22.50;74.70;;;;;;4842621;29;20052;-95
2021/05/20 12:55:34;;;;;;;0.90;0.40;;;22.70;82.20;;;;;;4843103;29;20479;-96
2021/05/20 12:58:01;;;;;;;1.33;0.40;;;22.80;66.50;;;;;;4857909;29;20410;-96